sensor_id;sensor_type;location;lat;lon;timestamp;temperature;humidity
57466;DHT22;67033;44.984;20.068;2023-02-22T04:32:17;7.30;99.90
57466;DHT22;67033;44.984;20.068;2023-02-22T04:34:43;7.40;99.90
57466;DHT22;67033;44.984;20.068;2023-02-22T04:37:09;7.20;99.90
57466;DHT22;67033;44.984;20.068;2023-02-22T04:39:35;7.30;99.90
57466;DHT22;67033;44.984;20.068;2023-02-22T04:42:01;7.20;99.90
57466;DHT22;67033;44.984;20.068;2023-02-22T04:44:27;7.20;99.90
57466;DHT22;67033;44.984;20.068;2023-02-22T07:47:57;7.10;99.90
57466;DHT22;67033;44.984;20.068;2023-02-22T07:50:24;10.70;99.90
57466;DHT22;67033;44.984;20.068;2023-02-22T07:52:53;11.00;99.90
57466;DHT22;67033;44.984;20.068;2023-02-22T07:55:24;11.50;99.90
57466;DHT22;67033;44.984;20.068;2023-02-22T08:02:49;11.50;99.90
57466;DHT22;67033;44.984;20.068;2023-02-22T08:05:15;12.70;99.90
57466;DHT22;67033;44.984;20.068;2023-02-22T08:10:12;13.50;99.90
57466;DHT22;67033;44.984;20.068;2023-02-22T08:12:38;13.00;99.90
57466;DHT22;67033;44.984;20.068;2023-02-22T08:15:06;13.20;99.90
57466;DHT22;67033;44.984;20.068;2023-02-22T08:17:32;13.50;99.90
57466;DHT22;67033;44.984;20.068;2023-02-22T08:24:52;13.80;99.90
57466;DHT22;67033;44.984;20.068;2023-02-22T08:27:23;14.50;99.90
57466;DHT22;67033;44.984;20.068;2023-02-22T08:29:50;14.50;99.70
57466;DHT22;67033;44.984;20.068;2023-02-22T08:32:16;14.60;99.90
57466;DHT22;67033;44.984;20.068;2023-02-22T08:34:43;14.90;97.90
57466;DHT22;67033;44.984;20.068;2023-02-22T08:37:09;15.00;96.90
57466;DHT22;67033;44.984;20.068;2023-02-22T08:39:35;15.00;98.00
57466;DHT22;67033;44.984;20.068;2023-02-22T08:42:01;15.10;97.10
57466;DHT22;67033;44.984;20.068;2023-02-22T09:06:27;15.40;96.60
57466;DHT22;67033;44.984;20.068;2023-02-22T09:08:53;16.90;91.20
57466;DHT22;67033;44.984;20.068;2023-02-22T09:11:19;16.50;92.00
57466;DHT22;67033;44.984;20.068;2023-02-22T09:13:45;16.70;90.20
57466;DHT22;67033;44.984;20.068;2023-02-22T09:16:11;16.80;89.10
57466;DHT22;67033;44.984;20.068;2023-02-22T09:18:37;17.10;86.80
57466;DHT22;67033;44.984;20.068;2023-02-22T09:21:04;17.30;84.50
57466;DHT22;67033;44.984;20.068;2023-02-22T09:23:30;17.60;86.50
57466;DHT22;67033;44.984;20.068;2023-02-22T09:25:56;17.70;82.70
57466;DHT22;67033;44.984;20.068;2023-02-22T09:28:28;17.70;79.60
57466;DHT22;67033;44.984;20.068;2023-02-22T09:30:54;17.80;80.90
57466;DHT22;67033;44.984;20.068;2023-02-22T09:33:20;17.90;76.00
57466;DHT22;67033;44.984;20.068;2023-02-22T09:35:48;17.70;77.10
57466;DHT22;67033;44.984;20.068;2023-02-22T09:38:19;17.70;77.20
57466;DHT22;67033;44.984;20.068;2023-02-22T09:40:55;18.10;77.00
57466;DHT22;67033;44.984;20.068;2023-02-22T09:43:34;18.50;78.60
57466;DHT22;67033;44.984;20.068;2023-02-22T09:46:22;18.30;74.90
57466;DHT22;67033;44.984;20.068;2023-02-22T09:49:16;18.30;74.60
57466;DHT22;67033;44.984;20.068;2023-02-22T09:52:05;18.30;74.50
57466;DHT22;67033;44.984;20.068;2023-02-22T09:57:06;18.40;74.60
57466;DHT22;67033;44.984;20.068;2023-02-22T09:59:40;18.10;73.70
57466;DHT22;67033;44.984;20.068;2023-02-22T10:02:26;18.00;74.20
57466;DHT22;67033;44.984;20.068;2023-02-22T10:05:01;18.00;75.30
57466;DHT22;67033;44.984;20.068;2023-02-22T10:07:43;18.20;76.10
57466;DHT22;67033;44.984;20.068;2023-02-22T10:10:17;17.90;92.20
57466;DHT22;67033;44.984;20.068;2023-02-22T10:25:53;18.90;74.50
57466;DHT22;67033;44.984;20.068;2023-02-22T10:28:25;19.00;74.20
57466;DHT22;67033;44.984;20.068;2023-02-22T10:31:10;19.20;73.70
57466;DHT22;67033;44.984;20.068;2023-02-22T10:33:46;19.30;72.40
57466;DHT22;67033;44.984;20.068;2023-02-22T10:36:19;18.90;71.00
57466;DHT22;67033;44.984;20.068;2023-02-22T10:38:59;19.10;71.20
57466;DHT22;67033;44.984;20.068;2023-02-22T10:41:35;19.00;71.70
57466;DHT22;67033;44.984;20.068;2023-02-22T10:44:03;19.20;71.50
57466;DHT22;67033;44.984;20.068;2023-02-22T10:46:31;19.50;71.50
57466;DHT22;67033;44.984;20.068;2023-02-22T10:49:02;19.50;71.90
57466;DHT22;67033;44.984;20.068;2023-02-22T10:51:29;19.50;67.10
57466;DHT22;67033;44.984;20.068;2023-02-22T10:54:03;19.50;70.30
57466;DHT22;67033;44.984;20.068;2023-02-22T10:56:50;19.30;68.60
57466;DHT22;67033;44.984;20.068;2023-02-22T10:59:37;19.10;70.40
57466;DHT22;67033;44.984;20.068;2023-02-22T11:02:23;19.20;71.20
57466;DHT22;67033;44.984;20.068;2023-02-22T11:04:54;19.10;68.10
57466;DHT22;67033;44.984;20.068;2023-02-22T11:09:54;19.30;70.50
57466;DHT22;67033;44.984;20.068;2023-02-22T11:14:54;18.90;68.10
57466;DHT22;67033;44.984;20.068;2023-02-22T11:17:31;19.00;68.90
57466;DHT22;67033;44.984;20.068;2023-02-22T11:19:58;19.00;67.50
57466;DHT22;67033;44.984;20.068;2023-02-22T11:22:45;19.10;69.50
57466;DHT22;67033;44.984;20.068;2023-02-22T11:25:18;18.90;68.00
57466;DHT22;67033;44.984;20.068;2023-02-22T11:27:46;18.60;67.90
57466;DHT22;67033;44.984;20.068;2023-02-22T11:30:30;18.60;70.60
57466;DHT22;67033;44.984;20.068;2023-02-22T11:32:59;18.30;69.50
57466;DHT22;67033;44.984;20.068;2023-02-22T11:38:16;18.70;69.90
57466;DHT22;67033;44.984;20.068;2023-02-22T11:40:40;18.80;68.80
57466;DHT22;67033;44.984;20.068;2023-02-22T11:43:17;18.70;69.40
57466;DHT22;67033;44.984;20.068;2023-02-22T11:46:16;18.70;68.20
57466;DHT22;67033;44.984;20.068;2023-02-22T11:55:16;18.70;68.70
57466;DHT22;67033;44.984;20.068;2023-02-22T12:00:58;19.00;68.00
57466;DHT22;67033;44.984;20.068;2023-02-22T12:09:21;18.70;67.80
57466;DHT22;67033;44.984;20.068;2023-02-22T12:12:15;18.80;67.00
57466;DHT22;67033;44.984;20.068;2023-02-22T12:20:39;18.80;68.40
57466;DHT22;67033;44.984;20.068;2023-02-22T12:23:49;19.10;68.50
57466;DHT22;67033;44.984;20.068;2023-02-22T12:26:42;18.80;66.50
57466;DHT22;67033;44.984;20.068;2023-02-22T12:29:35;18.60;68.20
57466;DHT22;67033;44.984;20.068;2023-02-22T12:32:14;18.50;69.10
57466;DHT22;67033;44.984;20.068;2023-02-22T12:35:02;18.40;67.60
57466;DHT22;67033;44.984;20.068;2023-02-22T12:37:50;18.60;69.60
57466;DHT22;67033;44.984;20.068;2023-02-22T12:42:56;18.80;68.10
57466;DHT22;67033;44.984;20.068;2023-02-22T12:46:26;18.50;67.60
57466;DHT22;67033;44.984;20.068;2023-02-22T12:48:41;18.40;68.30
57466;DHT22;67033;44.984;20.068;2023-02-22T12:51:18;18.60;68.70
57466;DHT22;67033;44.984;20.068;2023-02-22T12:53:57;18.60;68.00
57466;DHT22;67033;44.984;20.068;2023-02-22T12:56:47;18.60;69.60
57466;DHT22;67033;44.984;20.068;2023-02-22T12:59:36;18.60;69.30
57466;DHT22;67033;44.984;20.068;2023-02-22T13:05:00;18.00;71.60
57466;DHT22;67033;44.984;20.068;2023-02-22T13:07:45;17.50;72.00
57466;DHT22;67033;44.984;20.068;2023-02-22T13:10:33;17.40;73.00
57466;DHT22;67033;44.984;20.068;2023-02-22T13:15:51;17.10;73.30
57466;DHT22;67033;44.984;20.068;2023-02-22T13:18:36;17.30;72.90
57466;DHT22;67033;44.984;20.068;2023-02-22T13:21:15;17.60;74.00
57466;DHT22;67033;44.984;20.068;2023-02-22T13:23:54;17.70;73.60
57466;DHT22;67033;44.984;20.068;2023-02-22T13:26:43;17.90;71.90
57466;DHT22;67033;44.984;20.068;2023-02-22T13:29:23;17.90;72.30
57466;DHT22;67033;44.984;20.068;2023-02-22T13:34:55;18.10;71.90
57466;DHT22;67033;44.984;20.068;2023-02-22T13:37:48;18.10;77.00
57466;DHT22;67033;44.984;20.068;2023-02-22T13:56:59;17.80;69.20
57466;DHT22;67033;44.984;20.068;2023-02-22T13:59:35;17.90;69.70
57466;DHT22;67033;44.984;20.068;2023-02-22T14:02:04;18.00;70.00
57466;DHT22;67033;44.984;20.068;2023-02-22T14:04:38;17.80;70.00
57466;DHT22;67033;44.984;20.068;2023-02-22T14:09:56;17.90;78.40
57466;DHT22;67033;44.984;20.068;2023-02-22T14:17:58;17.70;84.80
57466;DHT22;67033;44.984;20.068;2023-02-22T14:20:34;17.50;69.70
57466;DHT22;67033;44.984;20.068;2023-02-22T14:26:30;17.30;69.90
57466;DHT22;67033;44.984;20.068;2023-02-22T14:34:20;17.30;70.70
57466;DHT22;67033;44.984;20.068;2023-02-22T14:37:03;17.40;70.50
57466;DHT22;67033;44.984;20.068;2023-02-22T14:42:47;17.30;70.60
57466;DHT22;67033;44.984;20.068;2023-02-22T14:45:25;17.30;70.40
57466;DHT22;67033;44.984;20.068;2023-02-22T14:48:17;17.20;74.50
57466;DHT22;67033;44.984;20.068;2023-02-22T14:50:53;17.10;73.40
57466;DHT22;67033;44.984;20.068;2023-02-22T14:53:23;17.20;74.10
57466;DHT22;67033;44.984;20.068;2023-02-22T14:55:57;17.20;74.50
57466;DHT22;67033;44.984;20.068;2023-02-22T14:58:52;17.20;75.00
57466;DHT22;67033;44.984;20.068;2023-02-22T15:01:26;16.90;89.90
57466;DHT22;67033;44.984;20.068;2023-02-22T15:04:29;16.80;71.30
57466;DHT22;67033;44.984;20.068;2023-02-22T15:06:48;16.80;83.80
57466;DHT22;67033;44.984;20.068;2023-02-22T15:09:23;16.70;81.20
57466;DHT22;67033;44.984;20.068;2023-02-22T15:11:54;16.50;72.90
57466;DHT22;67033;44.984;20.068;2023-02-22T15:14:36;16.30;73.20
57466;DHT22;67033;44.984;20.068;2023-02-22T15:17:23;16.20;73.10
57466;DHT22;67033;44.984;20.068;2023-02-22T15:19:49;16.30;80.30
57466;DHT22;67033;44.984;20.068;2023-02-22T15:22:25;16.20;73.60
57466;DHT22;67033;44.984;20.068;2023-02-22T15:25:00;16.10;74.40
57466;DHT22;67033;44.984;20.068;2023-02-22T15:27:26;16.00;75.10
57466;DHT22;67033;44.984;20.068;2023-02-22T15:30:00;16.00;80.40
57466;DHT22;67033;44.984;20.068;2023-02-22T15:38:18;15.70;77.20
57466;DHT22;67033;44.984;20.068;2023-02-22T15:40:45;15.60;78.10
57466;DHT22;67033;44.984;20.068;2023-02-22T15:43:23;15.50;79.50
57466;DHT22;67033;44.984;20.068;2023-02-22T15:45:50;15.50;78.90
57466;DHT22;67033;44.984;20.068;2023-02-22T15:48:17;15.40;78.50
57466;DHT22;67033;44.984;20.068;2023-02-22T15:53:51;15.30;80.30
57466;DHT22;67033;44.984;20.068;2023-02-22T16:18:48;15.20;79.50
57466;DHT22;67033;44.984;20.068;2023-02-22T16:21:20;14.50;84.00
57466;DHT22;67033;44.984;20.068;2023-02-22T16:23:48;14.50;85.00
57466;DHT22;67033;44.984;20.068;2023-02-22T16:28:57;14.30;86.30
57466;DHT22;67033;44.984;20.068;2023-02-22T16:31:28;14.20;86.90
57466;DHT22;67033;44.984;20.068;2023-02-22T16:33:56;14.10;86.90
57466;DHT22;67033;44.984;20.068;2023-02-22T16:36:34;13.70;88.60
57466;DHT22;67033;44.984;20.068;2023-02-22T16:39:03;14.00;89.80
57466;DHT22;67033;44.984;20.068;2023-02-22T16:43:58;13.90;90.10
57466;DHT22;67033;44.984;20.068;2023-02-22T16:46:24;13.70;91.10
57466;DHT22;67033;44.984;20.068;2023-02-22T16:48:50;13.70;92.00
57466;DHT22;67033;44.984;20.068;2023-02-22T16:53:43;13.70;93.50
57466;DHT22;67033;44.984;20.068;2023-02-22T16:56:11;13.50;93.10
57466;DHT22;67033;44.984;20.068;2023-02-22T16:58:41;13.50;97.90
57466;DHT22;67033;44.984;20.068;2023-02-22T17:01:07;13.30;94.00
57466;DHT22;67033;44.984;20.068;2023-02-22T17:06:00;13.40;94.60
57466;DHT22;67033;44.984;20.068;2023-02-22T17:08:26;13.10;95.50
57466;DHT22;67033;44.984;20.068;2023-02-22T17:10:53;13.00;96.00
57466;DHT22;67033;44.984;20.068;2023-02-22T17:13:24;13.10;97.70
57466;DHT22;67033;44.984;20.068;2023-02-22T17:15:51;12.90;97.40
57466;DHT22;67033;44.984;20.068;2023-02-22T17:18:20;12.90;97.60
57466;DHT22;67033;44.984;20.068;2023-02-22T17:20:51;12.90;97.60
57466;DHT22;67033;44.984;20.068;2023-02-22T17:23:18;12.90;97.90
57466;DHT22;67033;44.984;20.068;2023-02-22T17:33:06;12.80;97.70
57466;DHT22;67033;44.984;20.068;2023-02-22T17:35:36;12.60;99.60
57466;DHT22;67033;44.984;20.068;2023-02-22T17:38:03;12.60;99.70
57466;DHT22;67033;44.984;20.068;2023-02-22T17:40:37;12.50;99.30
57466;DHT22;67033;44.984;20.068;2023-02-22T17:43:05;12.50;99.70
57466;DHT22;67033;44.984;20.068;2023-02-22T17:45:33;12.50;99.80
57466;DHT22;67033;44.984;20.068;2023-02-22T17:50:27;12.30;99.90
57466;DHT22;67033;44.984;20.068;2023-02-22T17:52:56;12.30;99.90
57466;DHT22;67033;44.984;20.068;2023-02-22T17:55:25;12.20;99.90
57466;DHT22;67033;44.984;20.068;2023-02-22T17:57:53;12.10;99.90
57466;DHT22;67033;44.984;20.068;2023-02-22T18:00:23;12.00;99.90
57466;DHT22;67033;44.984;20.068;2023-02-22T18:03:02;12.00;99.90
57466;DHT22;67033;44.984;20.068;2023-02-22T18:05:29;11.90;99.90
57466;DHT22;67033;44.984;20.068;2023-02-22T18:07:57;11.90;99.90
57466;DHT22;67033;44.984;20.068;2023-02-22T18:10:23;11.90;99.90
57466;DHT22;67033;44.984;20.068;2023-02-22T18:12:52;12.00;99.90
57466;DHT22;67033;44.984;20.068;2023-02-22T18:15:19;11.90;99.90
57466;DHT22;67033;44.984;20.068;2023-02-22T18:17:46;11.90;99.90
57466;DHT22;67033;44.984;20.068;2023-02-22T18:20:13;11.90;99.90
57466;DHT22;67033;44.984;20.068;2023-02-22T18:22:41;12.00;99.90
57466;DHT22;67033;44.984;20.068;2023-02-22T18:25:12;11.90;99.90
57466;DHT22;67033;44.984;20.068;2023-02-22T18:27:40;11.90;99.90
57466;DHT22;67033;44.984;20.068;2023-02-22T18:30:09;11.90;99.90
57466;DHT22;67033;44.984;20.068;2023-02-22T18:32:36;11.90;99.90
57466;DHT22;67033;44.984;20.068;2023-02-22T18:35:03;11.80;99.90
57466;DHT22;67033;44.984;20.068;2023-02-22T18:37:29;11.70;99.90
57466;DHT22;67033;44.984;20.068;2023-02-22T18:47:18;11.70;99.90
57466;DHT22;67033;44.984;20.068;2023-02-22T18:49:44;11.40;99.90
57466;DHT22;67033;44.984;20.068;2023-02-22T18:52:11;11.50;99.90
57466;DHT22;67033;44.984;20.068;2023-02-22T18:54:40;11.50;99.90
57466;DHT22;67033;44.984;20.068;2023-02-22T18:57:09;11.30;99.90
57466;DHT22;67033;44.984;20.068;2023-02-22T18:59:41;11.30;99.90
57466;DHT22;67033;44.984;20.068;2023-02-22T19:02:12;11.20;99.90
57466;DHT22;67033;44.984;20.068;2023-02-22T19:04:38;11.20;99.90
57466;DHT22;67033;44.984;20.068;2023-02-22T19:07:05;11.30;99.90
57466;DHT22;67033;44.984;20.068;2023-02-22T19:09:31;11.20;99.90
57466;DHT22;67033;44.984;20.068;2023-02-22T19:11:57;11.20;99.90
57466;DHT22;67033;44.984;20.068;2023-02-22T19:14:23;11.10;99.90
57466;DHT22;67033;44.984;20.068;2023-02-22T19:16:49;11.10;99.90
57466;DHT22;67033;44.984;20.068;2023-02-22T19:19:16;11.10;99.90
57466;DHT22;67033;44.984;20.068;2023-02-22T19:21:49;11.10;99.90
57466;DHT22;67033;44.984;20.068;2023-02-22T19:24:15;11.10;99.90
